Time;durP1;ratioP1;P1;durP2;ratioP2;P2;SDS_P1;SDS_P2;PMS_P1;PMS_P2;Temp;Humidity;BMP_temperature;BMP_pressure;BME280_temperature;BME280_humidity;BME280_pressure;Samples;Min_cycle;Max_cycle;Signal;HPM_P1;HPM_P2
2023/01/29 00:01:08;;;;;;;36.23;23.87;;;0.20;99.90;;;;;;5041320;28;20424;-79
2023/01/29 00:03:34;;;;;;;39.67;24.40;;;0.10;99.90;;;;;;5024347;28;20187;-77
2023/01/29 00:06:05;;;;;;;36.83;23.70;;;0.30;99.90;;;;;;5039274;28;21067;-78
2023/01/29 00:08:33;;;;;;;38.53;23.73;;;0.00;99.90;;;;;;5035260;28;20481;-79
2023/01/29 00:11:06;;;;;;;40.03;25.00;;;0.30;99.90;;;;;;5047216;28;20424;-78
2023/01/29 00:13:35;;;;;;;38.27;23.37;;;0.10;99.90;;;;;;5049918;28;20418;-76
2023/01/29 00:16:02;;;;;;;35.50;23.37;;;0.10;99.90;;;;;;5016268;28;20432;-79
2023/01/29 00:18:28;;;;;;;34.60;23.20;;;0.30;99.90;;;;;;5020117;28;20784;-79
2023/01/29 00:20:54;;;;;;;40.47;24.20;;;0.20;99.90;;;;;;5014245;28;20420;-79
2023/01/29 00:23:20;;;;;;;39.37;23.33;;;0.20;99.90;;;;;;5020374;28;20398;-77
2023/01/29 00:25:46;;;;;;;38.67;24.20;;;0.40;99.90;;;;;;5030322;28;20701;-79
2023/01/29 00:28:12;;;;;;;37.93;24.23;;;0.40;99.90;;;;;;5022401;28;20416;-79
2023/01/29 00:30:38;;;;;;;39.30;24.43;;;0.20;99.90;;;;;;5016413;28;20236;-79
2023/01/29 00:33:04;;;;;;;37.33;23.47;;;0.10;99.90;;;;;;5025671;28;20269;-78
2023/01/29 00:35:31;;;;;;;40.77;24.60;;;0.20;99.90;;;;;;5046103;28;20443;-79
2023/01/29 00:37:57;;;;;;;41.50;24.63;;;0.10;99.90;;;;;;5052596;28;20420;-78
2023/01/29 00:40:24;;;;;;;41.70;25.60;;;0.10;99.90;;;;;;5041246;28;20421;-76
2023/01/29 00:45:35;;;;;;;45.37;23.87;;;0.10;99.90;;;;;;5034335;28;20451;-76
2023/01/29 00:48:01;;;;;;;39.30;23.37;;;0.30;99.90;;;;;;5014317;28;20400;-79
2023/01/29 00:50:27;;;;;;;42.53;24.97;;;0.00;99.90;;;;;;5031432;28;20948;-77
2023/01/29 00:52:53;;;;;;;42.23;25.97;;;0.00;99.90;;;;;;5014048;28;20418;-79
2023/01/29 00:55:19;;;;;;;40.43;24.67;;;0.10;99.90;;;;;;5017823;28;20440;-79
2023/01/29 00:57:45;;;;;;;44.57;24.50;;;0.00;99.90;;;;;;5048758;28;20572;-79
2023/01/29 01:00:16;;;;;;;43.30;25.20;;;-0.10;99.90;;;;;;5026022;28;20425;-79
2023/01/29 01:05:27;;;;;;;41.20;24.87;;;0.10;99.90;;;;;;5035230;28;20460;-76
2023/01/29 01:07:55;;;;;;;40.13;24.73;;;0.00;99.90;;;;;;5051395;28;20435;-75
2023/01/29 01:10:26;;;;;;;40.97;24.63;;;0.10;99.90;;;;;;5014179;28;20421;-76
2023/01/29 01:12:57;;;;;;;40.57;24.40;;;-0.10;99.90;;;;;;5013477;28;20918;-77
2023/01/29 01:15:37;;;;;;;42.47;25.50;;;0.10;99.90;;;;;;5041707;28;20442;-78
2023/01/29 01:18:04;;;;;;;39.87;23.87;;;-0.20;99.90;;;;;;5043027;28;20812;-79
2023/01/29 01:20:32;;;;;;;41.27;24.10;;;-0.10;99.90;;;;;;5042708;28;20426;-80
2023/01/29 01:22:58;;;;;;;43.03;26.07;;;-0.10;99.90;;;;;;5020059;28;20839;-78
2023/01/29 01:25:25;;;;;;;41.10;24.80;;;0.10;99.90;;;;;;5013934;28;20507;-76
2023/01/29 01:27:52;;;;;;;40.47;25.00;;;0.00;99.90;;;;;;5005643;28;20526;-78
2023/01/29 01:30:18;;;;;;;40.97;24.43;;;0.00;99.90;;;;;;5034262;28;20421;-76
2023/01/29 01:32:44;;;;;;;40.93;25.60;;;-0.10;99.90;;;;;;5033841;28;21121;-76
2023/01/29 01:35:11;;;;;;;40.17;24.07;;;0.00;99.90;;;;;;5033281;28;20666;-77
2023/01/29 01:37:37;;;;;;;38.50;23.80;;;0.00;99.90;;;;;;5032709;28;20309;-76
2023/01/29 01:40:16;;;;;;;42.80;24.20;;;-0.10;99.90;;;;;;5033167;28;20415;-78
2023/01/29 01:42:43;;;;;;;39.70;22.77;;;-0.10;99.90;;;;;;5036993;28;20516;-76
2023/01/29 01:45:20;;;;;;;44.30;25.40;;;0.00;99.90;;;;;;5011644;28;20442;-76
2023/01/29 01:47:50;;;;;;;45.10;25.43;;;-0.10;99.90;;;;;;5035700;28;20900;-76
2023/01/29 01:50:25;;;;;;;39.27;23.77;;;-0.20;99.90;;;;;;5046200;28;20419;-78
2023/01/29 01:52:56;;;;;;;42.67;25.33;;;-0.30;99.90;;;;;;5037471;28;20983;-76
2023/01/29 01:55:25;;;;;;;44.80;25.77;;;-0.40;99.90;;;;;;5030773;28;20441;-79
2023/01/29 01:57:55;;;;;;;44.03;27.43;;;-0.30;99.90;;;;;;5006606;28;20940;-76
2023/01/29 02:00:24;;;;;;;47.87;26.93;;;-0.30;99.90;;;;;;5035587;28;20434;-76
2023/01/29 02:11:19;;;;;;;47.27;25.80;;;-0.30;99.90;;;;;;5025376;28;20395;-78
2023/01/29 02:13:45;;;;;;;42.77;23.90;;;-0.10;99.90;;;;;;5030507;28;20448;-76
2023/01/29 02:16:10;;;;;;;44.70;25.50;;;0.00;99.90;;;;;;5030628;28;20191;-76
2023/01/29 02:18:36;;;;;;;44.13;25.93;;;-0.20;99.90;;;;;;5032646;28;20519;-77
2023/01/29 02:21:29;;;;;;;43.67;25.97;;;-0.30;99.90;;;;;;5030753;28;20305;-78
2023/01/29 02:24:36;;;;;;;45.50;27.50;;;0.00;99.90;;;;;;5030506;28;20441;-76
2023/01/29 02:27:14;;;;;;;43.57;26.00;;;-0.20;99.90;;;;;;5028685;28;20547;-76
2023/01/29 02:30:00;;;;;;;42.00;27.03;;;-0.30;99.90;;;;;;5038217;28;20407;-77
2023/01/29 02:32:40;;;;;;;45.53;26.33;;;-0.20;99.90;;;;;;5034292;28;20398;-76
2023/01/29 02:35:33;;;;;;;41.70;24.93;;;0.00;99.90;;;;;;5032698;28;20431;-76
2023/01/29 02:38:26;;;;;;;40.43;24.97;;;-0.20;99.90;;;;;;5028234;28;20474;-77
2023/01/29 02:41:04;;;;;;;44.90;26.53;;;0.00;99.90;;;;;;5034659;28;20424;-76
2023/01/29 02:43:58;;;;;;;45.13;26.20;;;-0.10;99.90;;;;;;5008133;28;21106;-76
2023/01/29 02:46:37;;;;;;;41.10;25.23;;;0.10;99.90;;;;;;5010590;28;20462;-76
2023/01/29 02:49:18;;;;;;;46.47;27.50;;;-0.10;99.90;;;;;;5009013;28;20774;-78
2023/01/29 02:52:16;;;;;;;49.00;26.40;;;0.10;99.90;;;;;;5009183;28;20446;-77
2023/01/29 02:55:01;;;;;;;47.83;26.80;;;0.10;99.90;;;;;;4969484;28;20438;-77
2023/01/29 02:57:33;;;;;;;46.23;26.27;;;0.00;99.90;;;;;;5010117;28;20417;-76
2023/01/29 03:00:23;;;;;;;42.73;25.23;;;0.10;99.90;;;;;;5016230;28;20907;-76
2023/01/29 03:03:08;;;;;;;49.97;27.50;;;0.10;99.90;;;;;;5034244;28;20462;-75
2023/01/29 03:05:43;;;;;;;50.43;28.37;;;0.20;99.90;;;;;;5029963;28;20528;-75
2023/01/29 03:08:14;;;;;;;47.67;26.27;;;0.10;99.90;;;;;;5011984;28;20425;-77
2023/01/29 03:10:47;;;;;;;46.57;26.70;;;0.00;99.90;;;;;;5029897;28;20892;-77
2023/01/29 03:13:33;;;;;;;45.53;26.77;;;0.00;99.90;;;;;;5011592;28;20395;-76
2023/01/29 03:16:12;;;;;;;40.40;24.90;;;-0.10;99.90;;;;;;5012430;28;20512;-77
2023/01/29 03:18:44;;;;;;;44.27;24.70;;;0.20;99.90;;;;;;5029315;28;20417;-76
2023/01/29 03:32:25;;;;;;;42.17;24.57;;;-0.10;99.90;;;;;;5033740;28;20416;-77
2023/01/29 03:34:56;;;;;;;49.63;26.23;;;0.00;99.90;;;;;;5033287;28;20462;-78
2023/01/29 03:37:33;;;;;;;46.80;26.50;;;-0.20;99.90;;;;;;5015735;28;20456;-76
2023/01/29 03:40:00;;;;;;;47.17;26.37;;;-0.10;99.90;;;;;;5015924;28;20944;-76
2023/01/29 03:42:30;;;;;;;45.00;25.97;;;-0.20;99.90;;;;;;5033673;28;20388;-76
2023/01/29 03:45:07;;;;;;;46.87;26.83;;;-0.30;99.90;;;;;;5033286;28;20775;-76
2023/01/29 03:47:51;;;;;;;47.20;27.93;;;-0.20;99.90;;;;;;5033133;28;20427;-75
2023/01/29 03:50:31;;;;;;;48.37;26.97;;;-0.10;99.90;;;;;;5033391;28;20420;-78
2023/01/29 03:53:15;;;;;;;46.17;27.03;;;-0.10;99.90;;;;;;5003522;28;20410;-76
2023/01/29 03:56:02;;;;;;;49.97;27.93;;;-0.10;99.90;;;;;;5030866;28;20422;-77
2023/01/29 03:58:36;;;;;;;48.73;26.80;;;-0.10;99.90;;;;;;5033009;28;20391;-76
2023/01/29 04:01:15;;;;;;;51.30;28.40;;;-0.10;99.90;;;;;;5015441;28;20421;-76
2023/01/29 04:04:21;;;;;;;51.80;28.33;;;-0.20;99.90;;;;;;5014652;28;20476;-76
2023/01/29 04:06:50;;;;;;;48.20;26.47;;;-0.20;99.90;;;;;;5019367;28;21035;-77
2023/01/29 04:09:26;;;;;;;47.00;26.57;;;-0.10;99.90;;;;;;5033136;28;20979;-76
2023/01/29 04:12:03;;;;;;;45.03;27.00;;;0.10;99.90;;;;;;4999137;28;20552;-79
2023/01/29 04:14:31;;;;;;;51.40;28.20;;;-0.10;99.90;;;;;;5014748;28;20499;-77
2023/01/29 04:17:01;;;;;;;56.70;29.47;;;0.10;99.90;;;;;;5014581;28;20421;-76
2023/01/29 04:19:26;;;;;;;49.10;26.97;;;0.00;99.90;;;;;;5032640;28;20395;-76
2023/01/29 04:22:01;;;;;;;50.60;28.53;;;0.10;99.90;;;;;;5032092;28;20553;-78
2023/01/29 04:24:26;;;;;;;48.23;28.30;;;0.00;99.90;;;;;;5036781;28;20807;-77
2023/01/29 04:27:33;;;;;;;46.37;27.17;;;0.00;99.90;;;;;;5014803;28;20555;-76
2023/01/29 04:30:28;;;;;;;45.27;26.40;;;0.30;99.90;;;;;;5015345;28;20631;-76
2023/01/29 04:33:03;;;;;;;50.97;27.50;;;0.20;99.90;;;;;;4994794;28;20421;-77
2023/01/29 04:35:39;;;;;;;48.60;26.37;;;0.00;99.90;;;;;;5013980;28;20441;-77
2023/01/29 04:38:14;;;;;;;47.37;26.73;;;0.20;99.90;;;;;;5014588;28;20452;-76
2023/01/29 04:40:49;;;;;;;51.70;26.90;;;0.00;99.90;;;;;;5014813;28;20420;-76
2023/01/29 04:43:23;;;;;;;51.03;27.80;;;0.10;99.90;;;;;;5032296;28;20408;-78
2023/01/29 04:46:26;;;;;;;47.30;27.40;;;0.30;99.90;;;;;;5035611;28;20475;-76
2023/01/29 04:49:19;;;;;;;45.37;25.20;;;0.00;99.90;;;;;;5023805;28;20428;-76
2023/01/29 04:52:15;;;;;;;46.07;25.83;;;0.00;99.90;;;;;;4995117;28;20802;-76
2023/01/29 04:55:06;;;;;;;43.40;24.93;;;0.30;99.90;;;;;;5005891;28;20437;-75
2023/01/29 04:57:35;;;;;;;47.77;25.80;;;0.20;99.90;;;;;;5032122;28;20476;-76
2023/01/29 05:00:13;;;;;;;48.33;25.80;;;0.30;99.90;;;;;;5031943;28;20409;-76
2023/01/29 05:02:40;;;;;;;45.87;26.53;;;0.10;99.90;;;;;;5032392;28;20413;-78
2023/01/29 05:05:08;;;;;;;44.37;24.80;;;0.40;99.90;;;;;;5031670;28;20446;-76
2023/01/29 05:07:37;;;;;;;46.53;24.70;;;0.40;99.90;;;;;;5031857;28;20960;-78
2023/01/29 05:10:05;;;;;;;45.13;26.40;;;0.30;99.90;;;;;;5031861;28;20448;-76
2023/01/29 05:12:32;;;;;;;44.60;24.50;;;0.40;99.90;;;;;;5032107;28;20506;-76
2023/01/29 05:15:01;;;;;;;40.53;24.30;;;0.50;99.90;;;;;;5011021;28;20433;-77
2023/01/29 05:17:27;;;;;;;40.07;22.40;;;0.50;99.90;;;;;;5039330;28;20839;-76
2023/01/29 05:19:54;;;;;;;42.07;23.43;;;0.50;99.90;;;;;;5051366;28;20417;-76
2023/01/29 05:22:21;;;;;;;43.40;23.23;;;0.40;99.90;;;;;;5051876;28;20391;-76
2023/01/29 05:24:48;;;;;;;39.70;23.40;;;0.20;99.90;;;;;;5017032;28;20802;-76
2023/01/29 05:30:06;;;;;;;40.40;24.33;;;0.50;99.90;;;;;;5033442;28;20417;-76
2023/01/29 05:32:32;;;;;;;40.10;22.90;;;0.60;99.90;;;;;;5051520;28;20904;-78
2023/01/29 05:34:57;;;;;;;43.33;23.73;;;0.60;99.90;;;;;;5050855;28;20436;-76
2023/01/29 05:37:23;;;;;;;46.17;24.37;;;0.60;99.90;;;;;;5051254;28;20427;-78
2023/01/29 05:39:48;;;;;;;39.00;22.80;;;0.50;99.90;;;;;;5051111;28;20182;-76
2023/01/29 05:42:14;;;;;;;44.20;24.30;;;0.70;99.90;;;;;;5051480;28;20184;-75
2023/01/29 05:44:40;;;;;;;39.67;22.23;;;0.50;99.90;;;;;;5033070;28;20912;-76
2023/01/29 05:47:05;;;;;;;39.07;21.70;;;0.40;99.90;;;;;;5050857;28;20206;-77
2023/01/29 05:49:31;;;;;;;43.00;23.63;;;0.50;99.90;;;;;;5038377;28;20182;-76
2023/01/29 05:51:57;;;;;;;41.70;23.27;;;0.60;99.90;;;;;;5013492;28;20706;-79
2023/01/29 05:54:22;;;;;;;40.70;22.57;;;0.50;99.90;;;;;;5030722;28;20208;-76
2023/01/29 05:56:48;;;;;;;38.53;22.40;;;0.50;99.90;;;;;;5013191;28;20182;-77
2023/01/29 05:59:14;;;;;;;44.10;25.17;;;0.60;99.90;;;;;;5030751;28;20187;-77
2023/01/29 06:01:40;;;;;;;38.27;23.40;;;0.70;99.90;;;;;;5030710;28;20190;-77
2023/01/29 06:04:06;;;;;;;35.83;21.77;;;0.60;99.90;;;;;;5030622;28;20453;-78
2023/01/29 06:06:31;;;;;;;40.63;23.30;;;0.50;99.90;;;;;;5013384;28;20214;-78
2023/01/29 06:08:57;;;;;;;40.10;23.93;;;0.60;99.90;;;;;;5013116;28;20546;-76
2023/01/29 06:11:23;;;;;;;40.03;23.27;;;0.60;99.90;;;;;;5012919;28;20388;-76
2023/01/29 06:13:49;;;;;;;37.80;21.60;;;0.80;99.90;;;;;;5030634;28;20244;-76
2023/01/29 06:16:15;;;;;;;41.97;24.27;;;0.60;99.90;;;;;;5030875;28;20398;-76
2023/01/29 06:18:41;;;;;;;38.70;22.40;;;0.60;99.90;;;;;;5030270;28;20411;-79
2023/01/29 06:21:11;;;;;;;41.07;22.80;;;0.70;99.90;;;;;;5012504;28;20201;-79
2023/01/29 06:23:37;;;;;;;39.10;22.63;;;0.80;99.90;;;;;;5030149;28;20401;-77
2023/01/29 06:26:06;;;;;;;36.40;21.50;;;0.70;99.90;;;;;;5012854;28;20526;-77
2023/01/29 06:28:31;;;;;;;36.60;22.73;;;0.80;99.90;;;;;;5030481;28;20421;-77
2023/01/29 06:31:01;;;;;;;38.03;22.10;;;0.60;99.90;;;;;;5030337;28;20409;-77
2023/01/29 06:33:27;;;;;;;39.07;22.80;;;0.60;99.90;;;;;;5030262;28;20174;-77
2023/01/29 06:35:57;;;;;;;41.60;23.87;;;0.70;99.90;;;;;;5012795;28;20427;-77
2023/01/29 06:38:23;;;;;;;36.83;21.30;;;0.70;99.90;;;;;;5012507;28;20662;-78
2023/01/29 06:40:49;;;;;;;41.97;23.33;;;0.70;99.90;;;;;;5030392;28;20429;-77
2023/01/29 06:43:14;;;;;;;37.57;20.77;;;0.70;99.90;;;;;;5030321;28;20421;-77
2023/01/29 06:45:50;;;;;;;44.50;24.50;;;0.70;99.90;;;;;;5030453;28;20207;-77
2023/01/29 06:48:17;;;;;;;42.37;24.30;;;0.80;99.90;;;;;;5030554;28;20188;-77
2023/01/29 06:50:43;;;;;;;39.73;21.97;;;0.90;99.90;;;;;;5030163;28;20449;-78
2023/01/29 06:53:09;;;;;;;40.03;22.40;;;0.90;99.90;;;;;;5014938;28;20457;-76
2023/01/29 06:55:34;;;;;;;39.77;21.53;;;0.80;99.90;;;;;;5028518;28;20449;-77
2023/01/29 06:58:04;;;;;;;41.63;23.80;;;0.70;99.90;;;;;;4995344;28;20188;-77
2023/01/29 07:00:30;;;;;;;38.77;23.00;;;0.90;99.90;;;;;;5029925;28;20200;-77
2023/01/29 07:02:56;;;;;;;39.33;22.53;;;0.70;99.90;;;;;;5012295;28;20421;-78
2023/01/29 07:05:21;;;;;;;39.97;23.53;;;0.90;99.90;;;;;;5029369;28;20246;-77
2023/01/29 07:07:47;;;;;;;44.87;24.53;;;0.70;99.90;;;;;;5029815;28;20206;-77
2023/01/29 07:10:12;;;;;;;36.30;21.30;;;1.00;99.90;;;;;;4996402;28;20194;-77
2023/01/29 07:12:38;;;;;;;41.57;21.70;;;0.80;99.90;;;;;;5035556;28;20213;-76
2023/01/29 07:15:04;;;;;;;39.97;22.10;;;0.90;99.90;;;;;;5031831;28;20204;-75
2023/01/29 07:17:30;;;;;;;40.60;22.60;;;1.00;99.90;;;;;;5027334;28;20602;-76
2023/01/29 07:19:55;;;;;;;39.40;23.00;;;0.90;99.90;;;;;;5027845;28;20436;-77
2023/01/29 07:22:21;;;;;;;37.93;21.70;;;1.00;99.90;;;;;;5014842;28;20227;-79
2023/01/29 07:24:47;;;;;;;37.33;22.10;;;0.70;99.90;;;;;;5032191;28;20523;-77
2023/01/29 07:27:13;;;;;;;40.50;22.67;;;1.00;99.90;;;;;;4996579;28;20210;-74
2023/01/29 07:29:38;;;;;;;43.90;23.97;;;1.20;99.90;;;;;;5031207;28;20428;-77
2023/01/29 07:32:04;;;;;;;44.20;23.83;;;1.00;99.90;;;;;;5040194;28;20782;-78
2023/01/29 07:34:30;;;;;;;38.03;21.33;;;0.90;99.90;;;;;;5030201;28;20209;-78
2023/01/29 07:36:55;;;;;;;38.87;22.77;;;1.10;99.90;;;;;;4990748;28;20281;-77
2023/01/29 07:39:22;;;;;;;40.63;23.50;;;1.20;99.90;;;;;;4989094;28;20194;-77
2023/01/29 07:41:47;;;;;;;37.07;23.17;;;1.10;99.90;;;;;;5014137;28;20209;-77
2023/01/29 07:44:13;;;;;;;41.17;23.17;;;1.00;99.90;;;;;;4998178;28;20452;-77
2023/01/29 07:46:38;;;;;;;39.70;22.10;;;0.90;99.90;;;;;;5010836;28;20210;-78
2023/01/29 07:49:04;;;;;;;38.37;22.50;;;1.10;99.90;;;;;;5011043;28;20176;-78
2023/01/29 07:51:29;;;;;;;37.07;21.53;;;1.10;99.90;;;;;;5014336;28;20273;-77
2023/01/29 07:53:55;;;;;;;40.20;22.23;;;0.90;99.90;;;;;;4997604;28;20565;-78
2023/01/29 07:56:21;;;;;;;38.40;22.07;;;0.90;99.90;;;;;;5032019;28;20479;-79
2023/01/29 07:58:46;;;;;;;40.97;22.13;;;1.00;99.90;;;;;;5014681;28;20178;-79
2023/01/29 08:01:12;;;;;;;36.90;22.00;;;1.30;99.90;;;;;;5014302;28;20178;-78
2023/01/29 08:03:38;;;;;;;37.13;20.67;;;1.10;99.90;;;;;;5032224;28;20190;-77
2023/01/29 08:06:04;;;;;;;35.87;20.67;;;1.20;99.90;;;;;;5014846;28;20263;-77
2023/01/29 08:08:29;;;;;;;35.80;22.10;;;1.30;99.90;;;;;;5033703;28;20437;-78
2023/01/29 08:10:55;;;;;;;37.20;22.80;;;1.20;99.90;;;;;;5036053;28;20482;-77
2023/01/29 08:13:21;;;;;;;38.20;22.40;;;1.10;99.90;;;;;;5034549;28;20253;-78
2023/01/29 08:15:46;;;;;;;41.43;23.93;;;1.10;99.90;;;;;;5034306;28;20175;-77
2023/01/29 08:18:13;;;;;;;43.10;24.27;;;1.20;99.90;;;;;;5033211;28;20673;-78
2023/01/29 08:20:39;;;;;;;37.23;21.37;;;1.20;99.90;;;;;;5014783;28;20651;-77
2023/01/29 08:23:07;;;;;;;38.17;23.17;;;1.20;99.90;;;;;;5015920;28;20502;-75
2023/01/29 08:25:34;;;;;;;44.37;23.83;;;1.10;99.90;;;;;;5041072;28;20440;-76
2023/01/29 08:28:00;;;;;;;36.00;21.37;;;1.20;99.90;;;;;;5029271;28;20496;-78
2023/01/29 08:30:27;;;;;;;38.40;23.20;;;1.00;99.90;;;;;;5034479;28;20386;-78
2023/01/29 08:32:53;;;;;;;43.53;24.40;;;1.30;99.90;;;;;;5031800;28;20473;-78
2023/01/29 08:35:19;;;;;;;38.63;22.20;;;1.20;99.90;;;;;;5033144;28;20957;-76
2023/01/29 08:37:55;;;;;;;41.37;23.83;;;1.30;99.90;;;;;;5015403;28;20206;-79
2023/01/29 08:40:21;;;;;;;40.47;23.37;;;1.20;99.90;;;;;;5033182;28;20691;-78
2023/01/29 08:42:47;;;;;;;42.93;24.37;;;1.30;99.90;;;;;;5014787;28;20656;-78
2023/01/29 08:45:12;;;;;;;40.70;23.30;;;1.40;99.90;;;;;;5015042;28;21013;-79
2023/01/29 08:47:44;;;;;;;43.47;23.07;;;1.30;99.90;;;;;;5010483;28;20210;-78
2023/01/29 08:50:10;;;;;;;42.00;24.17;;;1.30;99.90;;;;;;5007146;28;20186;-76
2023/01/29 08:52:36;;;;;;;45.83;24.87;;;1.30;99.90;;;;;;5019716;28;20470;-77
2023/01/29 08:55:02;;;;;;;44.47;24.57;;;1.50;99.90;;;;;;5036086;28;20455;-77
2023/01/29 08:57:27;;;;;;;41.80;24.07;;;1.60;99.90;;;;;;5034133;28;20189;-76
2023/01/29 08:59:53;;;;;;;42.90;23.80;;;1.40;99.90;;;;;;5015251;28;20433;-78
2023/01/29 09:02:19;;;;;;;40.13;23.40;;;1.70;99.90;;;;;;5031104;28;20559;-77
2023/01/29 09:04:45;;;;;;;41.80;24.53;;;1.50;99.90;;;;;;5016096;28;20227;-77
2023/01/29 09:07:10;;;;;;;47.73;26.10;;;1.70;99.90;;;;;;5037236;28;20193;-77
2023/01/29 09:09:37;;;;;;;44.97;25.87;;;1.70;99.90;;;;;;5035222;28;20408;-77
2023/01/29 09:12:02;;;;;;;44.07;26.57;;;1.80;99.90;;;;;;5035466;28;20181;-77
2023/01/29 09:14:28;;;;;;;42.30;24.87;;;1.80;99.90;;;;;;5035229;28;20429;-77
2023/01/29 09:16:54;;;;;;;40.73;24.10;;;1.80;99.90;;;;;;5035169;28;20688;-78
2023/01/29 09:19:19;;;;;;;46.63;29.60;;;1.70;99.90;;;;;;5037606;28;20277;-78
2023/01/29 09:21:45;;;;;;;57.77;33.20;;;2.00;99.90;;;;;;5037682;28;20265;-77
2023/01/29 09:24:10;;;;;;;53.53;29.53;;;2.10;99.90;;;;;;5029456;28;20281;-77
2023/01/29 09:26:38;;;;;;;50.70;29.70;;;2.00;99.90;;;;;;5009261;28;20198;-78
2023/01/29 09:29:04;;;;;;;51.63;29.30;;;2.10;99.90;;;;;;5022660;28;20819;-78
2023/01/29 09:31:29;;;;;;;53.87;31.30;;;2.00;99.90;;;;;;5027346;28;20454;-78
2023/01/29 09:33:55;;;;;;;55.47;32.27;;;2.00;99.90;;;;;;5026985;28;20213;-76
2023/01/29 09:36:20;;;;;;;42.53;24.70;;;2.10;99.90;;;;;;5032225;28;20206;-78
2023/01/29 09:38:46;;;;;;;41.73;23.00;;;2.00;99.90;;;;;;5020348;28;20211;-78
2023/01/29 09:41:24;;;;;;;39.60;23.33;;;2.00;99.90;;;;;;5033402;28;20302;-78
2023/01/29 09:44:01;;;;;;;39.10;23.53;;;2.10;99.90;;;;;;5038730;28;20289;-77
2023/01/29 09:46:39;;;;;;;40.60;22.47;;;2.00;99.90;;;;;;4995424;28;20511;-78
2023/01/29 09:49:11;;;;;;;43.17;25.63;;;2.10;99.90;;;;;;5016195;28;20467;-78
2023/01/29 09:51:41;;;;;;;45.93;26.40;;;2.30;99.90;;;;;;5021698;28;20445;-77
2023/01/29 09:54:28;;;;;;;37.77;22.43;;;2.30;99.90;;;;;;5004632;28;20504;-78
2023/01/29 09:56:55;;;;;;;39.03;23.57;;;2.10;99.90;;;;;;5015714;28;20499;-78
2023/01/29 09:59:25;;;;;;;42.37;24.50;;;2.10;99.90;;;;;;5020358;28;20532;-77
2023/01/29 10:02:09;;;;;;;39.83;25.00;;;2.20;99.90;;;;;;5012149;28;20789;-77
2023/01/29 10:05:01;;;;;;;38.00;23.03;;;2.20;99.90;;;;;;5022952;28;20520;-78
2023/01/29 10:07:41;;;;;;;39.70;23.37;;;2.30;99.90;;;;;;5013456;28;20562;-76
2023/01/29 10:10:50;;;;;;;41.27;22.73;;;2.20;99.90;;;;;;5029602;28;20458;-78
2023/01/29 10:13:18;;;;;;;37.47;22.50;;;2.10;99.90;;;;;;4949117;28;20465;-78
2023/01/29 10:16:12;;;;;;;39.40;23.20;;;2.20;99.90;;;;;;5002371;28;20433;-78
2023/01/29 10:18:40;;;;;;;38.50;24.07;;;2.30;99.90;;;;;;5027092;28;20444;-78
2023/01/29 10:21:33;;;;;;;44.57;24.30;;;2.40;99.90;;;;;;5019634;28;20434;-78
2023/01/29 10:24:27;;;;;;;45.30;27.63;;;2.30;99.90;;;;;;5012754;28;20916;-77
2023/01/29 10:26:53;;;;;;;40.90;23.93;;;2.30;99.90;;;;;;5033177;28;20543;-78
2023/01/29 10:29:20;;;;;;;38.10;23.20;;;2.40;99.90;;;;;;5037095;28;20465;-78
2023/01/29 10:32:04;;;;;;;42.73;25.70;;;2.40;99.90;;;;;;5032147;28;20445;-79
2023/01/29 10:34:37;;;;;;;42.23;24.07;;;2.40;99.90;;;;;;5006725;28;20502;-79
2023/01/29 10:37:15;;;;;;;43.87;22.93;;;2.40;99.90;;;;;;5011509;28;20968;-78
2023/01/29 10:39:41;;;;;;;41.37;22.77;;;2.60;99.90;;;;;;5014229;28;20488;-77
2023/01/29 10:42:29;;;;;;;47.97;26.73;;;2.40;99.90;;;;;;5036775;28;20499;-78
2023/01/29 10:44:58;;;;;;;40.73;23.90;;;2.40;99.90;;;;;;5008857;28;20232;-77
2023/01/29 10:47:48;;;;;;;41.13;23.70;;;2.60;99.90;;;;;;5029943;28;20456;-79
2023/01/29 10:50:45;;;;;;;39.90;23.30;;;2.70;99.90;;;;;;5014118;28;21407;-78
2023/01/29 10:53:38;;;;;;;38.50;22.87;;;2.60;99.90;;;;;;5025309;28;20451;-78
2023/01/29 10:56:28;;;;;;;39.80;23.17;;;2.70;99.90;;;;;;5032698;28;20929;-78
2023/01/29 10:58:56;;;;;;;39.93;23.63;;;2.50;99.90;;;;;;5021649;28;20570;-78
2023/01/29 11:01:22;;;;;;;47.70;29.30;;;2.60;99.90;;;;;;5037484;28;20465;-78
2023/01/29 11:03:57;;;;;;;45.17;27.53;;;2.70;99.90;;;;;;5018220;28;20486;-78
2023/01/29 11:06:30;;;;;;;53.17;31.73;;;2.70;99.90;;;;;;5011618;28;20472;-79
2023/01/29 11:09:04;;;;;;;50.83;27.87;;;2.60;99.90;;;;;;5030496;28;21079;-78
2023/01/29 11:11:39;;;;;;;40.33;24.30;;;2.70;99.90;;;;;;5015235;28;20753;-77
2023/01/29 11:14:12;;;;;;;40.53;25.50;;;2.70;99.90;;;;;;5030378;28;20444;-79
2023/01/29 11:16:47;;;;;;;48.60;30.57;;;2.60;99.90;;;;;;5031603;28;20451;-78
2023/01/29 11:19:13;;;;;;;43.07;25.80;;;2.60;99.90;;;;;;5032336;28;20522;-79
2023/01/29 11:22:00;;;;;;;42.43;24.43;;;2.60;99.90;;;;;;5026673;28;20531;-78
2023/01/29 11:24:26;;;;;;;46.37;25.70;;;2.60;99.90;;;;;;5008620;28;20496;-77
2023/01/29 11:26:58;;;;;;;40.20;24.10;;;2.70;99.90;;;;;;5030225;28;20471;-78
2023/01/29 11:29:35;;;;;;;39.17;22.50;;;2.70;99.90;;;;;;5029181;28;20523;-79
2023/01/29 11:32:05;;;;;;;39.07;23.27;;;2.60;99.90;;;;;;5013848;28;20432;-78
2023/01/29 11:34:31;;;;;;;48.70;27.90;;;2.70;99.90;;;;;;5030536;28;20437;-78
2023/01/29 11:37:14;;;;;;;37.53;22.30;;;2.80;99.90;;;;;;5012631;28;20448;-79
2023/01/29 11:39:45;;;;;;;38.77;22.37;;;2.90;99.90;;;;;;5011988;28;20606;-78
2023/01/29 11:42:19;;;;;;;36.90;21.90;;;2.70;99.90;;;;;;5030495;28;20796;-77
2023/01/29 11:44:45;;;;;;;42.03;25.00;;;2.70;99.90;;;;;;5033744;28;21043;-78
2023/01/29 11:47:16;;;;;;;38.00;23.90;;;2.80;99.90;;;;;;5035365;28;20551;-78
2023/01/29 11:49:52;;;;;;;43.27;24.47;;;2.70;99.90;;;;;;5016890;28;20226;-78
2023/01/29 11:52:21;;;;;;;44.43;25.97;;;2.70;99.90;;;;;;5014807;28;20452;-79
2023/01/29 11:55:02;;;;;;;36.20;21.40;;;2.70;99.90;;;;;;5016436;28;20983;-79
2023/01/29 11:57:41;;;;;;;38.60;23.60;;;2.60;99.90;;;;;;5040203;28;20508;-79
2023/01/29 12:00:16;;;;;;;35.70;21.53;;;2.80;99.90;;;;;;5040933;28;20440;-77
2023/01/29 12:02:45;;;;;;;36.77;22.17;;;2.90;99.90;;;;;;5020437;28;20445;-79
2023/01/29 12:05:21;;;;;;;34.73;21.17;;;2.80;99.90;;;;;;5041934;28;20824;-78
2023/01/29 12:07:50;;;;;;;35.50;21.27;;;2.70;99.90;;;;;;5004170;28;20490;-79
2023/01/29 12:10:33;;;;;;;36.23;22.90;;;2.70;99.90;;;;;;5031815;28;20448;-79
2023/01/29 12:13:18;;;;;;;33.70;20.47;;;2.80;99.90;;;;;;5023932;28;20444;-78
2023/01/29 12:15:45;;;;;;;34.73;21.13;;;2.80;99.90;;;;;;5013618;28;20483;-79
2023/01/29 12:18:32;;;;;;;35.07;21.27;;;2.90;99.90;;;;;;5014270;28;20836;-79
2023/01/29 12:21:01;;;;;;;37.43;21.00;;;2.70;99.90;;;;;;5007388;28;20829;-79
2023/01/29 12:23:35;;;;;;;34.67;20.97;;;2.60;99.90;;;;;;5040301;28;20416;-77
2023/01/29 12:26:11;;;;;;;35.73;20.17;;;2.70;99.90;;;;;;5043242;28;20420;-79
2023/01/29 12:28:37;;;;;;;37.10;21.20;;;2.70;99.90;;;;;;5031820;28;20423;-79
2023/01/29 12:31:20;;;;;;;34.77;21.23;;;2.70;99.90;;;;;;5023233;28;20413;-77
2023/01/29 12:34:15;;;;;;;35.83;21.03;;;2.80;99.90;;;;;;5042860;28;20201;-79
2023/01/29 12:36:53;;;;;;;31.27;18.57;;;2.70;99.90;;;;;;5026155;28;20461;-79
2023/01/29 12:39:20;;;;;;;33.63;19.40;;;2.60;99.90;;;;;;5046950;28;20430;-79
2023/01/29 12:42:15;;;;;;;33.40;17.97;;;2.80;99.90;;;;;;5041473;28;20917;-77
2023/01/29 12:45:04;;;;;;;34.87;21.00;;;2.70;99.90;;;;;;5010486;28;20436;-77
2023/01/29 12:47:35;;;;;;;34.30;20.53;;;2.80;99.90;;;;;;5039265;28;20461;-79
2023/01/29 12:50:27;;;;;;;34.10;20.80;;;2.90;99.90;;;;;;5018069;28;20441;-76
2023/01/29 12:52:58;;;;;;;33.20;20.00;;;2.90;99.90;;;;;;5028175;28;20509;-78
2023/01/29 12:55:30;;;;;;;32.47;19.90;;;2.80;99.90;;;;;;5047873;28;20436;-76
2023/01/29 12:57:57;;;;;;;33.10;20.13;;;2.90;99.90;;;;;;5036760;28;20420;-79
2023/01/29 13:00:31;;;;;;;34.67;20.80;;;3.00;99.90;;;;;;5005494;28;20423;-77
2023/01/29 13:03:03;;;;;;;29.73;19.83;;;2.70;99.90;;;;;;5008585;28;20439;-78
2023/01/29 13:05:39;;;;;;;29.37;17.47;;;2.70;99.90;;;;;;5027422;28;20457;-78
2023/01/29 13:08:20;;;;;;;33.77;20.97;;;2.80;99.90;;;;;;5015735;28;21004;-77
2023/01/29 13:10:49;;;;;;;31.83;19.17;;;2.80;99.90;;;;;;5032524;28;20797;-77
2023/01/29 13:13:31;;;;;;;32.07;20.17;;;2.90;99.90;;;;;;5018488;28;20413;-77
2023/01/29 13:15:59;;;;;;;36.10;20.47;;;2.70;99.90;;;;;;5025304;28;20950;-77
2023/01/29 13:18:44;;;;;;;34.83;19.67;;;2.90;99.90;;;;;;5050698;28;20420;-79
2023/01/29 13:21:20;;;;;;;37.20;21.37;;;2.90;99.90;;;;;;5033784;28;20410;-78
2023/01/29 13:23:50;;;;;;;35.07;21.00;;;2.90;99.90;;;;;;5012809;28;21239;-78
2023/01/29 13:26:17;;;;;;;34.97;19.00;;;2.90;99.90;;;;;;5027103;28;20452;-78
2023/01/29 13:28:44;;;;;;;34.83;20.77;;;3.00;99.90;;;;;;5033497;28;20413;-78